Time;durP1;ratioP1;P1;durP2;ratioP2;P2;SDS_P1;SDS_P2;PMS_P1;PMS_P2;Temp;Humidity;BMP_temperature;BMP_pressure;BME280_temperature;BME280_humidity;BME280_pressure;Samples;Min_cycle;Max_cycle;Signal;HPM_P1;HPM_P2
2023/10/31 05:00:34;;;;;;;1.57;0.80;;;11.70;87.10;;;;;;5982274;23;20508;-75
2023/10/31 05:03:02;;;;;;;1.30;0.70;;;11.80;87.00;;;;;;4998180;28;20440;-74
2023/10/31 05:05:29;;;;;;;1.20;0.77;;;11.80;86.70;;;;;;4998340;28;20478;-75
2023/10/31 05:07:56;;;;;;;1.30;0.67;;;11.70;86.30;;;;;;4998532;28;20441;-75
2023/10/31 05:10:23;;;;;;;1.30;0.60;;;11.70;86.10;;;;;;4997453;28;20438;-76
2023/10/31 05:12:50;;;;;;;1.70;0.70;;;11.70;86.30;;;;;;4998567;28;20441;-75
2023/10/31 05:15:17;;;;;;;2.03;0.70;;;11.70;86.30;;;;;;4998241;28;20543;-75
2023/10/31 05:17:45;;;;;;;1.30;0.60;;;11.80;86.10;;;;;;4996841;28;20950;-76
2023/10/31 05:20:12;;;;;;;1.40;0.70;;;11.70;86.10;;;;;;4997486;28;20943;-75
2023/10/31 05:22:38;;;;;;;1.93;0.70;;;11.80;85.90;;;;;;4997415;28;20465;-75
2023/10/31 05:25:06;;;;;;;1.60;0.70;;;11.80;86.00;;;;;;4996918;28;20444;-73
2023/10/31 05:27:32;;;;;;;1.83;0.63;;;11.70;86.40;;;;;;4997098;28;20453;-75
2023/10/31 05:29:59;;;;;;;1.13;0.60;;;11.80;86.50;;;;;;4996982;28;20449;-75
2023/10/31 05:32:26;;;;;;;1.60;0.80;;;11.80;85.90;;;;;;4996661;28;20465;-75
2023/10/31 05:34:54;;;;;;;1.63;0.60;;;11.80;86.10;;;;;;4996425;28;20485;-75
2023/10/31 05:37:20;;;;;;;1.60;0.80;;;11.70;85.70;;;;;;4996673;28;20450;-75
2023/10/31 05:39:47;;;;;;;1.30;0.80;;;11.60;85.80;;;;;;4996840;28;20453;-75
2023/10/31 05:42:14;;;;;;;1.27;0.70;;;11.60;85.60;;;;;;4996400;28;20858;-75
2023/10/31 05:44:41;;;;;;;1.47;0.77;;;11.50;86.10;;;;;;4997305;28;20453;-75
2023/10/31 05:47:07;;;;;;;2.03;0.77;;;11.60;85.90;;;;;;4996640;28;20445;-74
2023/10/31 05:49:34;;;;;;;1.30;0.73;;;11.50;85.60;;;;;;4996788;28;20453;-75
2023/10/31 05:52:02;;;;;;;1.67;0.70;;;11.50;86.00;;;;;;4996768;28;20465;-75
2023/10/31 05:54:29;;;;;;;1.80;0.70;;;11.40;85.50;;;;;;4997732;28;20477;-75
2023/10/31 05:56:55;;;;;;;1.30;0.80;;;11.50;85.90;;;;;;4996542;28;20931;-75
2023/10/31 05:59:22;;;;;;;1.20;0.60;;;11.60;85.50;;;;;;4996058;28;20949;-75
2023/10/31 06:01:50;;;;;;;1.80;0.70;;;11.40;85.40;;;;;;4995421;28;20473;-75
2023/10/31 06:04:16;;;;;;;1.50;0.80;;;11.50;85.50;;;;;;4995187;28;20463;-75
2023/10/31 06:06:43;;;;;;;1.17;0.60;;;11.40;85.10;;;;;;4995033;28;20488;-76
2023/10/31 06:09:11;;;;;;;1.40;0.70;;;11.40;85.10;;;;;;4994931;28;20452;-75
2023/10/31 06:11:41;;;;;;;1.40;0.70;;;11.40;84.60;;;;;;4995023;28;20843;-75
2023/10/31 06:14:08;;;;;;;1.20;0.70;;;11.40;85.40;;;;;;4994914;28;21023;-75
2023/10/31 06:16:40;;;;;;;2.67;0.60;;;11.50;85.10;;;;;;4994694;28;20452;-75
2023/10/31 06:19:06;;;;;;;1.30;0.60;;;11.50;85.10;;;;;;4995174;28;20433;-74
2023/10/31 06:21:33;;;;;;;1.30;0.80;;;11.60;85.10;;;;;;4995543;28;20472;-76
2023/10/31 06:24:00;;;;;;;1.20;0.60;;;11.70;84.70;;;;;;4995989;28;20521;-76
2023/10/31 06:26:28;;;;;;;1.40;0.70;;;11.60;84.00;;;;;;4995835;28;20449;-76
2023/10/31 06:28:54;;;;;;;1.40;0.80;;;11.50;84.30;;;;;;4995398;28;20449;-77
2023/10/31 06:31:21;;;;;;;1.60;0.70;;;11.40;85.00;;;;;;4995836;28;20989;-76
2023/10/31 06:33:48;;;;;;;1.30;0.67;;;11.30;84.30;;;;;;4996969;28;20487;-76
2023/10/31 06:36:15;;;;;;;1.93;0.60;;;11.40;85.10;;;;;;4995776;28;20437;-76
2023/10/31 06:38:41;;;;;;;1.20;0.70;;;11.40;84.60;;;;;;4995917;28;20931;-75
2023/10/31 06:41:08;;;;;;;1.20;0.70;;;11.30;84.50;;;;;;4995035;28;20461;-76
2023/10/31 06:43:36;;;;;;;1.30;0.70;;;11.30;85.20;;;;;;4994502;28;20445;-76
2023/10/31 06:46:04;;;;;;;1.30;0.70;;;11.30;84.70;;;;;;4994532;28;20453;-76
2023/10/31 06:48:31;;;;;;;2.33;0.90;;;11.20;84.40;;;;;;4994889;28;20535;-77
2023/10/31 06:50:58;;;;;;;1.53;1.33;;;11.10;85.50;;;;;;4994443;28;20469;-74
2023/10/31 06:53:24;;;;;;;1.30;0.80;;;11.10;85.70;;;;;;4994381;28;20457;-77
2023/10/31 06:55:51;;;;;;;1.30;0.67;;;11.20;86.50;;;;;;4994561;28;20446;-75
2023/10/31 06:58:18;;;;;;;1.70;0.80;;;11.20;85.60;;;;;;4994743;28;20465;-76
2023/10/31 07:00:46;;;;;;;1.50;0.80;;;11.10;84.60;;;;;;4994737;28;20520;-75
2023/10/31 07:03:15;;;;;;;1.87;0.80;;;11.00;85.60;;;;;;5004998;28;20426;-74
2023/10/31 07:05:41;;;;;;;1.60;0.80;;;11.00;86.00;;;;;;5015155;28;20441;-75
2023/10/31 07:08:08;;;;;;;1.50;0.80;;;11.00;86.20;;;;;;4997098;28;20447;-76
2023/10/31 07:10:35;;;;;;;1.40;0.77;;;11.10;86.60;;;;;;5000006;28;20898;-75
2023/10/31 07:13:01;;;;;;;1.30;0.70;;;11.10;86.30;;;;;;4998932;28;20491;-75
2023/10/31 07:15:28;;;;;;;1.70;0.93;;;11.30;86.00;;;;;;4999389;28;20492;-77
2023/10/31 07:17:56;;;;;;;1.40;0.83;;;11.30;85.20;;;;;;4999627;28;20456;-76
2023/10/31 07:20:23;;;;;;;1.40;0.80;;;11.30;85.20;;;;;;4997690;28;20453;-77
2023/10/31 07:22:49;;;;;;;1.30;0.80;;;11.30;85.60;;;;;;4997747;28;20452;-76
2023/10/31 07:25:16;;;;;;;1.60;0.77;;;11.20;86.40;;;;;;4997699;28;20449;-76
2023/10/31 07:27:43;;;;;;;1.67;0.73;;;11.20;86.60;;;;;;4997306;28;20449;-76
2023/10/31 07:30:10;;;;;;;1.60;0.83;;;11.10;86.30;;;;;;4997342;28;20544;-76
2023/10/31 07:32:37;;;;;;;2.30;0.97;;;11.30;86.50;;;;;;4997343;28;20476;-76
2023/10/31 07:35:06;;;;;;;1.63;1.17;;;11.30;86.10;;;;;;4998204;28;20476;-76
2023/10/31 07:37:33;;;;;;;1.67;0.60;;;11.40;86.30;;;;;;4997715;28;20961;-78
2023/10/31 07:39:59;;;;;;;2.47;0.70;;;11.30;86.10;;;;;;4997726;28;20455;-76
2023/10/31 07:42:26;;;;;;;1.50;0.70;;;11.30;87.10;;;;;;4998570;28;20472;-76
2023/10/31 07:44:53;;;;;;;1.30;0.70;;;11.40;86.60;;;;;;4999388;28;20437;-76
2023/10/31 07:47:19;;;;;;;1.40;0.83;;;11.40;86.50;;;;;;4997173;28;20445;-77
2023/10/31 07:49:46;;;;;;;2.37;0.80;;;11.50;85.90;;;;;;4997109;28;20456;-74
2023/10/31 07:52:14;;;;;;;1.30;0.70;;;11.60;86.70;;;;;;4997872;28;21015;-76
2023/10/31 07:54:41;;;;;;;1.30;0.70;;;11.70;86.40;;;;;;4996766;28;20859;-77
2023/10/31 07:57:08;;;;;;;1.20;0.60;;;11.70;86.30;;;;;;4996918;28;20449;-76
2023/10/31 07:59:34;;;;;;;1.37;0.70;;;11.50;86.50;;;;;;4997261;28;20452;-77
2023/10/31 08:02:01;;;;;;;1.97;0.73;;;11.70;87.20;;;;;;4996151;28;20543;-78
2023/10/31 08:04:29;;;;;;;1.30;0.70;;;11.80;86.30;;;;;;4996634;28;20456;-77
2023/10/31 08:06:56;;;;;;;1.20;0.70;;;11.70;86.00;;;;;;4996762;28;20520;-76
2023/10/31 08:09:24;;;;;;;1.13;0.60;;;11.80;86.20;;;;;;4997591;28;20446;-76
2023/10/31 08:11:51;;;;;;;1.20;0.70;;;12.00;86.70;;;;;;4996516;28;20480;-77
2023/10/31 08:14:17;;;;;;;1.23;0.67;;;12.00;86.40;;;;;;4996405;28;20491;-76
2023/10/31 08:16:44;;;;;;;1.40;0.80;;;12.10;86.10;;;;;;4996910;28;20449;-76
2023/10/31 08:19:12;;;;;;;1.20;0.70;;;11.90;85.60;;;;;;4996150;28;20832;-77
2023/10/31 08:21:39;;;;;;;1.20;0.90;;;11.90;86.30;;;;;;4996368;28;20592;-77
2023/10/31 08:24:06;;;;;;;1.20;0.70;;;11.80;86.10;;;;;;4996334;28;20449;-76
2023/10/31 08:26:35;;;;;;;1.30;0.80;;;11.90;86.10;;;;;;4996316;28;20445;-77
2023/10/31 08:29:03;;;;;;;1.90;0.80;;;11.90;85.80;;;;;;4996594;28;20454;-77
2023/10/31 08:31:29;;;;;;;1.40;0.80;;;11.90;85.90;;;;;;4996096;28;20469;-77
2023/10/31 08:33:56;;;;;;;1.70;0.80;;;11.90;86.00;;;;;;4995837;28;20962;-76
2023/10/31 08:36:22;;;;;;;1.20;0.70;;;11.90;87.10;;;;;;4995755;28;20445;-77
2023/10/31 08:38:49;;;;;;;2.30;0.87;;;12.00;86.20;;;;;;4995686;28;20973;-77
2023/10/31 08:41:19;;;;;;;3.33;1.00;;;11.90;86.60;;;;;;4995926;28;20495;-77
2023/10/31 08:43:47;;;;;;;1.20;0.70;;;12.00;85.80;;;;;;4995882;28;20441;-77
2023/10/31 08:46:14;;;;;;;1.50;0.70;;;12.20;86.80;;;;;;4995947;28;20961;-76
2023/10/31 08:48:41;;;;;;;1.30;0.70;;;12.30;85.00;;;;;;4996526;28;20453;-77
2023/10/31 08:51:07;;;;;;;1.70;0.80;;;12.30;85.60;;;;;;4995996;28;20473;-77
2023/10/31 08:53:34;;;;;;;1.33;0.70;;;12.40;85.50;;;;;;4995820;28;20437;-78
2023/10/31 08:56:01;;;;;;;1.30;0.80;;;12.50;85.80;;;;;;4996072;28;20491;-76
2023/10/31 08:58:29;;;;;;;1.47;0.90;;;12.40;83.90;;;;;;4996249;28;20456;-77
2023/10/31 09:00:57;;;;;;;1.90;1.00;;;12.40;83.50;;;;;;4995302;28;20973;-78
2023/10/31 09:03:24;;;;;;;3.50;0.90;;;12.50;84.40;;;;;;4995765;28;20480;-77
2023/10/31 09:05:50;;;;;;;1.33;0.70;;;12.60;84.80;;;;;;4995688;28;20496;-77
2023/10/31 09:08:18;;;;;;;3.47;1.00;;;12.60;84.10;;;;;;4995695;28;20452;-77
2023/10/31 09:10:46;;;;;;;1.80;0.90;;;12.80;83.60;;;;;;4995838;28;20477;-78
2023/10/31 09:13:13;;;;;;;1.33;0.80;;;12.70;83.50;;;;;;4995441;28;20453;-77
2023/10/31 09:15:41;;;;;;;1.27;0.80;;;12.80;83.60;;;;;;4995436;28;20480;-77
2023/10/31 09:18:09;;;;;;;1.50;0.80;;;12.80;83.70;;;;;;4995630;28;20536;-77
2023/10/31 09:20:35;;;;;;;1.60;0.80;;;13.00;83.50;;;;;;4995381;28;20445;-77
2023/10/31 09:23:02;;;;;;;1.83;0.80;;;13.20;83.30;;;;;;4995389;28;20452;-77
2023/10/31 09:25:30;;;;;;;1.47;0.90;;;13.20;82.30;;;;;;4995906;28;20441;-77
2023/10/31 09:27:58;;;;;;;2.13;0.83;;;12.90;82.10;;;;;;4996122;28;20451;-77
2023/10/31 09:30:25;;;;;;;1.40;0.83;;;12.60;83.00;;;;;;4995324;28;20449;-76
2023/10/31 09:32:52;;;;;;;1.43;0.80;;;12.60;83.20;;;;;;4995826;28;20441;-77
2023/10/31 09:35:20;;;;;;;1.93;0.97;;;12.80;83.90;;;;;;4995926;28;20488;-77
2023/10/31 09:37:48;;;;;;;1.70;0.90;;;12.90;82.80;;;;;;4995696;28;20467;-77
2023/10/31 09:40:15;;;;;;;1.30;0.70;;;12.90;82.40;;;;;;4995564;28;20449;-77
2023/10/31 09:42:42;;;;;;;1.43;0.80;;;12.90;82.30;;;;;;4995320;28;21010;-77
2023/10/31 09:45:09;;;;;;;1.80;0.80;;;12.80;82.40;;;;;;4995821;28;20449;-77
2023/10/31 09:47:36;;;;;;;1.50;0.80;;;12.70;82.70;;;;;;4995829;28;20453;-77
2023/10/31 09:50:03;;;;;;;1.40;0.83;;;12.70;84.10;;;;;;4994902;28;20452;-77
2023/10/31 09:52:31;;;;;;;1.20;0.70;;;12.80;84.10;;;;;;4995585;28;20469;-77
2023/10/31 09:54:59;;;;;;;2.23;0.80;;;12.80;83.10;;;;;;4994641;28;20508;-77
2023/10/31 09:57:27;;;;;;;1.87;1.30;;;12.90;84.70;;;;;;4994869;28;20449;-77
2023/10/31 09:59:53;;;;;;;2.07;0.90;;;12.90;83.60;;;;;;4994719;28;20541;-77
2023/10/31 10:02:20;;;;;;;1.50;1.00;;;13.10;83.00;;;;;;4995015;28;20477;-77
2023/10/31 10:04:48;;;;;;;1.40;0.80;;;13.00;83.00;;;;;;4995767;28;20445;-77
2023/10/31 10:07:16;;;;;;;1.43;0.70;;;12.70;82.90;;;;;;4995096;28;20466;-77
2023/10/31 10:09:45;;;;;;;2.17;0.90;;;12.70;83.40;;;;;;4994507;28;20499;-77
2023/10/31 10:12:13;;;;;;;2.07;0.97;;;12.80;84.20;;;;;;4994627;28;20477;-77
2023/10/31 10:14:40;;;;;;;1.77;1.00;;;12.80;83.20;;;;;;4994531;28;20822;-77
2023/10/31 10:17:15;;;;;;;1.50;0.83;;;12.90;82.30;;;;;;4994843;28;20450;-76
2023/10/31 10:19:42;;;;;;;2.13;1.13;;;13.00;83.20;;;;;;4994614;28;20457;-77
2023/10/31 10:22:10;;;;;;;1.87;0.90;;;13.20;83.10;;;;;;4994130;28;20469;-77
2023/10/31 10:24:39;;;;;;;2.63;1.10;;;13.40;82.30;;;;;;4994616;28;20445;-77
2023/10/31 10:27:08;;;;;;;1.90;0.90;;;13.50;81.50;;;;;;4994711;28;20448;-76
2023/10/31 10:29:35;;;;;;;1.67;1.00;;;13.50;82.10;;;;;;4994669;28;20481;-75
2023/10/31 10:32:02;;;;;;;3.30;1.23;;;13.50;81.80;;;;;;4994750;28;20573;-77
2023/10/31 10:34:29;;;;;;;1.20;0.70;;;13.50;81.30;;;;;;4994501;28;20957;-76
2023/10/31 10:36:57;;;;;;;2.00;1.00;;;13.50;81.30;;;;;;4994416;28;20493;-76
2023/10/31 10:39:24;;;;;;;2.20;1.07;;;13.60;81.30;;;;;;4994369;28;20449;-77
2023/10/31 10:41:55;;;;;;;2.03;0.90;;;13.50;81.40;;;;;;4994933;28;20465;-76
2023/10/31 10:44:32;;;;;;;1.50;1.00;;;13.60;81.90;;;;;;4998887;28;20898;-76
2023/10/31 10:47:01;;;;;;;1.43;0.83;;;13.60;80.90;;;;;;5000363;28;20435;-76
2023/10/31 10:49:29;;;;;;;1.93;0.93;;;13.70;81.80;;;;;;4998501;28;20445;-76
2023/10/31 10:52:02;;;;;;;1.40;0.80;;;13.80;80.90;;;;;;4998431;28;20475;-77
2023/10/31 10:54:35;;;;;;;1.30;0.73;;;13.80;79.80;;;;;;4998899;28;20476;-77
2023/10/31 10:57:10;;;;;;;1.47;0.87;;;13.70;81.20;;;;;;4998283;28;20468;-77
2023/10/31 10:59:42;;;;;;;1.40;0.80;;;13.70;81.10;;;;;;5001061;28;20429;-78
2023/10/31 11:02:10;;;;;;;1.83;0.80;;;13.70;80.90;;;;;;5001052;28;20488;-76
2023/10/31 11:04:37;;;;;;;3.70;1.10;;;13.90;81.20;;;;;;5002050;28;20476;-79
2023/10/31 11:07:06;;;;;;;3.03;1.50;;;14.10;80.10;;;;;;5000661;28;20457;-79
2023/10/31 11:09:33;;;;;;;1.97;0.70;;;14.20;80.10;;;;;;5000484;28;20453;-77
2023/10/31 11:12:00;;;;;;;1.40;0.80;;;14.30;78.20;;;;;;4998256;28;20473;-77
2023/10/31 11:14:27;;;;;;;1.73;1.00;;;14.30;78.50;;;;;;5011794;23;20501;-69
2023/10/31 11:16:59;;;;;;;1.20;0.63;;;14.20;80.50;;;;;;4997070;28;20531;-71
2023/10/31 11:19:28;;;;;;;1.57;0.80;;;14.30;78.50;;;;;;4997645;28;20437;-70
2023/10/31 11:21:55;;;;;;;1.60;0.80;;;14.30;77.50;;;;;;4997326;28;20441;-71
2023/10/31 11:24:24;;;;;;;1.33;0.70;;;14.20;78.70;;;;;;4997150;28;20460;-70
2023/10/31 11:26:58;;;;;;;1.20;0.70;;;14.20;79.10;;;;;;4997293;28;20441;-71
2023/10/31 11:29:25;;;;;;;1.70;0.80;;;14.30;79.00;;;;;;4997249;28;20421;-70
2023/10/31 11:31:52;;;;;;;2.67;0.70;;;14.40;78.50;;;;;;4997078;28;20449;-71
2023/10/31 11:34:20;;;;;;;1.50;0.80;;;14.60;77.90;;;;;;4997052;28;20465;-70
2023/10/31 11:36:47;;;;;;;1.57;0.67;;;14.70;77.40;;;;;;4996775;28;20902;-72
2023/10/31 11:39:16;;;;;;;1.20;0.60;;;14.80;75.30;;;;;;4996655;28;20969;-70
2023/10/31 11:41:50;;;;;;;2.40;0.80;;;14.60;75.20;;;;;;4996800;28;20968;-71
2023/10/31 11:44:17;;;;;;;1.40;0.70;;;14.60;75.40;;;;;;4996881;28;20539;-74
2023/10/31 11:46:47;;;;;;;1.60;0.70;;;14.40;75.10;;;;;;4996952;28;20437;-71
2023/10/31 11:49:14;;;;;;;1.40;0.70;;;14.50;75.00;;;;;;4997200;28;20515;-69
2023/10/31 11:51:45;;;;;;;1.27;0.60;;;14.30;75.30;;;;;;4996814;28;20455;-70
2023/10/31 11:54:14;;;;;;;1.20;0.60;;;14.20;75.60;;;;;;4996025;28;20465;-70
2023/10/31 11:56:40;;;;;;;1.20;0.60;;;14.30;77.50;;;;;;4996555;28;20492;-70
2023/10/31 11:59:07;;;;;;;1.37;0.70;;;14.20;75.50;;;;;;4996906;28;20437;-71
2023/10/31 12:01:35;;;;;;;1.70;0.90;;;14.20;76.20;;;;;;4997049;28;20449;-72
2023/10/31 12:04:02;;;;;;;1.37;0.70;;;14.20;76.40;;;;;;4996536;28;20466;-71
2023/10/31 12:06:29;;;;;;;1.23;0.60;;;14.10;74.70;;;;;;4996440;28;20447;-71
2023/10/31 12:09:01;;;;;;;1.30;0.80;;;14.10;76.20;;;;;;4996407;28;20444;-71
2023/10/31 12:11:27;;;;;;;1.20;0.70;;;14.10;76.80;;;;;;4996210;28;20460;-71
2023/10/31 12:13:57;;;;;;;2.07;0.90;;;14.10;77.40;;;;;;4996138;28;20544;-72
2023/10/31 12:16:26;;;;;;;1.90;0.70;;;14.10;76.90;;;;;;4996188;28;20856;-72
2023/10/31 12:18:57;;;;;;;1.20;0.70;;;14.20;77.70;;;;;;4996240;28;20527;-73
2023/10/31 12:21:36;;;;;;;1.70;0.70;;;14.10;77.00;;;;;;4996325;28;20448;-71
2023/10/31 12:24:08;;;;;;;1.50;0.70;;;14.00;76.80;;;;;;4996146;28;20496;-72
2023/10/31 12:26:35;;;;;;;1.30;0.73;;;14.10;78.20;;;;;;4996028;28;20446;-72
2023/10/31 12:29:10;;;;;;;1.20;0.70;;;14.20;78.40;;;;;;4996054;28;20448;-72
2023/10/31 12:31:40;;;;;;;1.73;0.80;;;14.20;77.70;;;;;;4995771;28;20933;-70
2023/10/31 12:34:07;;;;;;;1.30;0.70;;;14.30;77.20;;;;;;4995881;28;20465;-70
2023/10/31 12:36:34;;;;;;;2.03;0.90;;;14.30;77.30;;;;;;4995940;28;20488;-71
2023/10/31 12:39:01;;;;;;;1.20;0.70;;;14.30;77.60;;;;;;4996941;28;20825;-71
2023/10/31 12:41:30;;;;;;;1.17;0.63;;;14.30;77.60;;;;;;4995809;28;20467;-70
2023/10/31 12:43:57;;;;;;;1.20;0.70;;;14.40;77.70;;;;;;4995702;28;20461;-71
2023/10/31 12:46:29;;;;;;;1.60;1.10;;;14.50;78.10;;;;;;4995787;28;20444;-70
2023/10/31 12:48:55;;;;;;;1.70;0.70;;;14.50;77.10;;;;;;4995911;28;20492;-71
2023/10/31 12:51:22;;;;;;;2.07;0.80;;;14.60;77.30;;;;;;4995663;28;20449;-71
2023/10/31 12:53:49;;;;;;;1.83;0.90;;;14.60;77.30;;;;;;4995573;28;20500;-70
2023/10/31 12:56:42;;;;;;;1.27;0.70;;;14.70;77.60;;;;;;4995417;28;20481;-70
2023/10/31 12:59:11;;;;;;;1.30;0.80;;;14.70;77.60;;;;;;4995502;28;20455;-72
2023/10/31 13:01:44;;;;;;;1.20;0.70;;;14.60;79.00;;;;;;4995458;28;20468;-72
2023/10/31 13:04:11;;;;;;;1.67;0.93;;;14.70;78.40;;;;;;4995079;28;20468;-72
2023/10/31 13:06:38;;;;;;;1.60;0.90;;;14.50;77.80;;;;;;4994299;28;20448;-72
2023/10/31 13:09:11;;;;;;;1.50;0.80;;;14.50;79.00;;;;;;4995274;28;20480;-71
2023/10/31 13:11:41;;;;;;;1.33;0.77;;;14.30;80.40;;;;;;4995279;28;20511;-71
2023/10/31 13:14:08;;;;;;;1.23;0.70;;;14.10;81.30;;;;;;4994973;28;20480;-71
2023/10/31 13:16:35;;;;;;;1.50;0.80;;;14.10;82.40;;;;;;4995073;28;20484;-71
2023/10/31 13:19:01;;;;;;;1.80;0.70;;;14.20;82.50;;;;;;4995040;28;20855;-71
2023/10/31 13:21:28;;;;;;;1.30;0.70;;;14.30;82.60;;;;;;4995837;28;20805;-73
2023/10/31 13:23:55;;;;;;;1.73;0.80;;;14.40;82.40;;;;;;4995176;28;20461;-72
2023/10/31 13:26:22;;;;;;;2.03;1.00;;;14.50;82.20;;;;;;4994935;28;20446;-73
2023/10/31 13:28:50;;;;;;;1.40;0.80;;;14.50;82.20;;;;;;4995002;28;20445;-72
2023/10/31 13:31:17;;;;;;;1.20;0.70;;;14.60;81.90;;;;;;4994804;28;20445;-71
2023/10/31 13:33:44;;;;;;;1.63;1.17;;;14.60;82.50;;;;;;4994416;28;20842;-72
2023/10/31 13:36:12;;;;;;;2.37;0.97;;;14.50;82.00;;;;;;4994657;28;20483;-72
2023/10/31 13:38:38;;;;;;;1.23;0.80;;;14.60;81.90;;;;;;4994413;28;20456;-72
2023/10/31 13:41:05;;;;;;;1.30;0.80;;;14.60;81.80;;;;;;4994347;28;20935;-71
2023/10/31 13:43:32;;;;;;;2.27;0.80;;;14.50;82.20;;;;;;4994240;28;20473;-71
2023/10/31 13:45:59;;;;;;;1.67;1.00;;;14.40;81.70;;;;;;4994585;28;20438;-71
2023/10/31 13:48:26;;;;;;;1.77;0.80;;;14.50;82.90;;;;;;4994512;28;20449;-72
2023/10/31 13:50:53;;;;;;;1.40;0.70;;;14.70;81.80;;;;;;4994251;28;20488;-72
2023/10/31 13:53:19;;;;;;;1.20;0.70;;;14.90;81.70;;;;;;4994432;28;20468;-70
2023/10/31 13:55:46;;;;;;;2.00;1.00;;;15.20;81.60;;;;;;4994570;28;20449;-72
2023/10/31 13:58:13;;;;;;;1.27;0.70;;;15.40;81.20;;;;;;4994347;28;20511;-71
2023/10/31 14:00:40;;;;;;;1.20;0.60;;;15.30;79.80;;;;;;4994314;28;20453;-70
2023/10/31 14:03:08;;;;;;;2.07;0.83;;;15.30;80.00;;;;;;4994371;28;20492;-71
2023/10/31 14:05:34;;;;;;;1.37;0.90;;;15.10;78.30;;;;;;4994422;28;20445;-71
2023/10/31 14:08:01;;;;;;;1.50;0.73;;;15.10;79.40;;;;;;4994935;28;20452;-71
2023/10/31 14:10:28;;;;;;;1.93;0.90;;;15.30;80.30;;;;;;4994836;28;20952;-71
2023/10/31 14:12:55;;;;;;;1.20;0.67;;;15.40;78.40;;;;;;4993872;28;20827;-72
2023/10/31 14:15:22;;;;;;;1.20;0.60;;;15.30;78.00;;;;;;4994110;28;20445;-70
2023/10/31 14:17:49;;;;;;;1.30;0.70;;;15.20;78.10;;;;;;4993760;28;20508;-71
2023/10/31 14:20:17;;;;;;;1.30;0.70;;;15.00;78.20;;;;;;4993775;28;20972;-71
2023/10/31 14:22:48;;;;;;;1.60;0.80;;;14.90;78.70;;;;;;4993780;28;20452;-72
2023/10/31 14:25:15;;;;;;;1.20;0.67;;;14.80;79.20;;;;;;4994117;28;20468;-71
2023/10/31 14:27:42;;;;;;;1.73;0.70;;;14.70;79.50;;;;;;4994012;28;20452;-71
2023/10/31 14:30:10;;;;;;;1.20;0.60;;;14.70;79.70;;;;;;4993987;28;20532;-70
2023/10/31 14:32:36;;;;;;;1.43;0.80;;;14.70;79.10;;;;;;4993939;28;20441;-71
2023/10/31 14:35:04;;;;;;;1.60;0.80;;;14.60;78.50;;;;;;4993555;28;20466;-71
2023/10/31 14:37:32;;;;;;;1.40;0.70;;;14.60;79.40;;;;;;4993781;28;20534;-71
2023/10/31 14:39:58;;;;;;;1.23;0.73;;;14.60;78.90;;;;;;4993873;28;20445;-72
2023/10/31 14:42:25;;;;;;;2.07;0.80;;;14.70;78.90;;;;;;4993843;28;20489;-72
2023/10/31 14:44:53;;;;;;;1.20;0.70;;;14.80;79.30;;;;;;4993780;28;20472;-72
2023/10/31 14:47:20;;;;;;;1.30;0.80;;;14.60;78.00;;;;;;4993469;28;20821;-71
2023/10/31 14:49:46;;;;;;;1.20;0.80;;;14.60;79.40;;;;;;4993822;28;20902;-72
2023/10/31 14:52:13;;;;;;;1.70;0.70;;;14.60;79.30;;;;;;4993447;28;20822;-71
2023/10/31 14:54:42;;;;;;;1.40;0.90;;;14.60;78.60;;;;;;4993673;28;20469;-71
2023/10/31 14:57:08;;;;;;;1.57;0.90;;;14.60;78.40;;;;;;4993612;28;20480;-71
2023/10/31 14:59:35;;;;;;;1.30;0.80;;;14.50;79.10;;;;;;4993687;28;20452;-71
2023/10/31 15:02:02;;;;;;;1.30;0.70;;;14.60;79.50;;;;;;4993728;28;20512;-70
2023/10/31 15:04:28;;;;;;;1.37;0.80;;;14.50;79.90;;;;;;4993827;28;20478;-70
2023/10/31 15:06:54;;;;;;;1.17;0.67;;;14.30;80.20;;;;;;4993622;28;20441;-70
2023/10/31 15:09:22;;;;;;;2.40;0.77;;;14.10;79.20;;;;;;4993672;28;20946;-71
2023/10/31 15:11:50;;;;;;;1.40;0.80;;;14.10;79.40;;;;;;4993544;28;20256;-72
2023/10/31 15:14:17;;;;;;;1.27;0.63;;;13.90;78.90;;;;;;4993208;28;21051;-71
2023/10/31 15:16:43;;;;;;;1.20;0.70;;;13.90;79.50;;;;;;4993462;28;20539;-71
2023/10/31 15:19:10;;;;;;;1.40;0.70;;;13.90;79.70;;;;;;4993824;28;20441;-71
2023/10/31 15:21:36;;;;;;;1.50;0.80;;;13.90;80.20;;;;;;4993380;28;20464;-72
2023/10/31 15:24:07;;;;;;;1.53;0.70;;;13.90;80.80;;;;;;4993167;28;20899;-71
2023/10/31 15:26:34;;;;;;;1.70;0.80;;;13.90;79.90;;;;;;4993195;28;20979;-72
2023/10/31 15:29:02;;;;;;;1.20;0.70;;;13.90;80.00;;;;;;4993863;28;20958;-70
2023/10/31 15:31:29;;;;;;;2.23;1.10;;;13.90;79.80;;;;;;4996748;28;20854;-70
2023/10/31 15:33:56;;;;;;;1.20;0.73;;;13.90;79.80;;;;;;4997061;28;20492;-73
2023/10/31 15:36:22;;;;;;;1.40;0.70;;;13.90;79.50;;;;;;4997042;28;20445;-71
2023/10/31 15:38:50;;;;;;;1.30;0.77;;;13.90;79.80;;;;;;4997011;28;20919;-73
2023/10/31 15:41:19;;;;;;;1.60;0.80;;;13.80;81.10;;;;;;4997035;28;20872;-70
2023/10/31 15:43:46;;;;;;;2.70;0.83;;;13.80;81.10;;;;;;4996850;28;20476;-72
2023/10/31 15:46:14;;;;;;;2.00;0.90;;;13.70;81.40;;;;;;4996499;28;20480;-71
2023/10/31 15:48:41;;;;;;;1.50;0.70;;;13.60;82.40;;;;;;4996488;28;20861;-72
2023/10/31 15:51:08;;;;;;;1.20;0.70;;;13.70;82.50;;;;;;4997080;28;20452;-72
2023/10/31 15:53:36;;;;;;;1.30;0.70;;;13.70;82.30;;;;;;4996694;28;20556;-72
2023/10/31 15:56:08;;;;;;;1.27;0.70;;;13.60;82.30;;;;;;4996696;28;20473;-71
2023/10/31 15:58:35;;;;;;;1.40;0.90;;;13.60;82.20;;;;;;4996591;28;20508;-72
2023/10/31 16:01:03;;;;;;;1.50;0.80;;;13.60;82.60;;;;;;4996582;28;20456;-72
2023/10/31 16:03:32;;;;;;;3.30;1.00;;;13.60;83.00;;;;;;4996124;28;20536;-70
2023/10/31 16:05:59;;;;;;;1.20;0.63;;;13.40;83.30;;;;;;4996494;28;20504;-71
2023/10/31 16:08:25;;;;;;;1.17;0.60;;;13.40;83.70;;;;;;4996453;28;20453;-71
2023/10/31 16:10:52;;;;;;;1.43;0.77;;;13.50;83.60;;;;;;4996391;28;20449;-71
2023/10/31 16:13:20;;;;;;;1.30;0.70;;;13.60;83.60;;;;;;4995851;28;20985;-71
2023/10/31 16:15:47;;;;;;;1.50;0.80;;;13.50;83.80;;;;;;4996286;28;20456;-71
2023/10/31 16:18:14;;;;;;;1.30;0.80;;;13.40;84.30;;;;;;4996172;28;20535;-72
2023/10/31 16:20:44;;;;;;;1.10;0.60;;;13.40;84.50;;;;;;4996185;28;20457;-72
2023/10/31 16:23:10;;;;;;;1.60;0.90;;;13.40;84.80;;;;;;4996289;28;20557;-72
2023/10/31 16:25:37;;;;;;;1.30;0.70;;;13.50;84.70;;;;;;4996194;28;20445;-73
2023/10/31 16:28:04;;;;;;;1.37;0.90;;;13.50;84.60;;;;;;4996106;28;20446;-72
2023/10/31 16:30:33;;;;;;;1.93;0.90;;;13.50;84.40;;;;;;4996055;28;20453;-72
2023/10/31 16:32:59;;;;;;;1.60;1.00;;;13.60;84.60;;;;;;4996128;28;20480;-72
2023/10/31 16:35:26;;;;;;;1.80;1.03;;;13.60;84.40;;;;;;4996013;28;20441;-71
2023/10/31 16:37:54;;;;;;;1.70;1.10;;;13.60;84.00;;;;;;4996052;28;20855;-72
2023/10/31 16:40:23;;;;;;;1.60;1.10;;;13.20;84.80;;;;;;4995725;28;20476;-72
2023/10/31 16:42:50;;;;;;;1.60;1.00;;;13.20;85.20;;;;;;4995472;28;20532;-73
2023/10/31 16:45:17;;;;;;;1.80;0.90;;;13.10;85.10;;;;;;4995765;28;20472;-72
2023/10/31 16:47:45;;;;;;;1.50;0.90;;;13.00;84.70;;;;;;4995552;28;20459;-72
2023/10/31 16:50:12;;;;;;;2.50;1.07;;;12.90;85.50;;;;;;4995656;28;20452;-74
2023/10/31 16:52:39;;;;;;;1.20;0.77;;;12.70;86.10;;;;;;4995617;28;20445;-70
2023/10/31 16:55:08;;;;;;;1.40;0.87;;;12.70;86.50;;;;;;4995894;28;20465;-68
2023/10/31 16:57:34;;;;;;;1.50;0.70;;;12.50;87.20;;;;;;4995363;28;20503;-70
2023/10/31 17:00:01;;;;;;;1.40;0.80;;;12.50;86.90;;;;;;4995544;28;20500;-71
2023/10/31 17:02:28;;;;;;;1.40;0.80;;;12.30;87.00;;;;;;4995111;28;20445;-71
2023/10/31 17:04:56;;;;;;;1.90;0.90;;;12.30;87.90;;;;;;4995004;28;20473;-71
2023/10/31 17:07:23;;;;;;;1.40;0.80;;;12.40;87.40;;;;;;4995287;28;20492;-71
2023/10/31 17:09:50;;;;;;;1.63;0.90;;;12.50;87.00;;;;;;4995276;28;20445;-71
2023/10/31 17:12:18;;;;;;;2.10;0.90;;;12.50;87.20;;;;;;4995215;28;20496;-72
2023/10/31 17:14:45;;;;;;;2.00;0.90;;;12.50;87.10;;;;;;5107675;23;20525;-79
2023/10/31 17:17:12;;;;;;;1.50;0.80;;;12.50;87.20;;;;;;4996017;28;20520;-79
2023/10/31 17:19:38;;;;;;;1.43;0.90;;;12.50;87.10;;;;;;4997820;28;20503;-77
2023/10/31 17:22:05;;;;;;;1.40;1.10;;;12.50;86.90;;;;;;4995600;28;20449;-76
2023/10/31 17:24:32;;;;;;;2.03;1.03;;;12.40;86.80;;;;;;4995059;28;20468;-78
2023/10/31 17:26:58;;;;;;;1.50;1.10;;;12.30;87.50;;;;;;4995122;28;20448;-78
2023/10/31 17:29:26;;;;;;;1.50;0.90;;;12.30;87.80;;;;;;4995031;28;20824;-77
2023/10/31 17:31:53;;;;;;;2.20;0.80;;;12.40;87.20;;;;;;4995985;28;20831;-75
2023/10/31 17:34:20;;;;;;;1.20;0.60;;;12.20;87.30;;;;;;4995875;28;20480;-75
2023/10/31 17:36:47;;;;;;;1.33;0.80;;;12.10;87.60;;;;;;4996074;28;21001;-75
2023/10/31 17:39:14;;;;;;;1.30;0.80;;;12.10;88.00;;;;;;4996396;28;20465;-75
2023/10/31 17:41:41;;;;;;;1.30;0.80;;;12.20;88.00;;;;;;4995816;28;20452;-76
2023/10/31 17:44:08;;;;;;;1.30;0.80;;;12.20;87.80;;;;;;4995676;28;20818;-76
2023/10/31 17:46:36;;;;;;;1.77;1.00;;;12.10;87.50;;;;;;4995567;28;20892;-76
2023/10/31 17:49:03;;;;;;;1.40;0.80;;;12.20;87.50;;;;;;4997159;28;20437;-74